This is the latest recevied weather packets stored in our database for station/object F4JSG-10. If no packets are shown the sender has not sent any weather packets the latest 1 day(s).
| Time | Temp. | Humidity | Pressure | Rain* | Wind** | Luminosity | Snow |
|---|---|---|---|---|---|---|---|
| 1778079214 | 12.78° C | 82% | 982.9 hPa | - | - | - | - |
| 1778078314 | 12.78° C | 82% | 982.7 hPa | - | - | - | - |
| 1778078311 | 12.78° C | 82% | 982.7 hPa | - | - | - | - |
| 1778077414 | 13.33° C | 79% | 982.8 hPa | - | - | - | - |
| 1778077411 | 13.33° C | 79% | 982.8 hPa | - | - | - | - |
| 1778076511 | 13.33° C | 79% | 982.6 hPa | - | - | - | - |
| 1778072913 | 15° C | 79% | 982.2 hPa | - | - | - | - |
| 1778072910 | 15° C | 79% | 982.2 hPa | - | - | - | - |
| 1778072013 | 15° C | 78% | 982.1 hPa | - | - | - | - |
| 1778072010 | 15° C | 78% | 982.1 hPa | - | - | - | - |
| 1778071113 | 15° C | 80% | 981.9 hPa | - | - | - | - |
| 1778071110 | 15° C | 80% | 981.9 hPa | - | - | - | - |
| 1778070213 | 14.44° C | 79% | 981.8 hPa | - | - | - | - |
| 1778067512 | 16.11° C | 67% | 981.5 hPa | - | - | - | - |
| 1778066609 | 16.67° C | 63% | 981.5 hPa | - | - | - | - |
| 1778065712 | 16.11° C | 71% | 981.6 hPa | - | - | - | - |
| 1778065709 | 16.11° C | 71% | 981.6 hPa | - | - | - | - |
| 1778062108 | 15° C | 70% | 981.6 hPa | - | - | - | - |
| 1778060308 | 16.67° C | 60% | 981.5 hPa | - | - | - | - |
| 1778056707 | 19.44° C | 56% | 981 hPa | - | - | - | - |
| 1778055807 | 18.89° C | 58% | 980.8 hPa | - | - | - | - |
| 1778054907 | 18.89° C | 61% | 981 hPa | - | - | - | - |
| 1778054014 | 18.89° C | 65% | 981 hPa | - | - | - | - |
| 1778054007 | 18.89° C | 65% | 981 hPa | - | - | - | - |
| 1778053105 | 17.22° C | 76% | 981.2 hPa | - | - | - | - |
* Rain since midnight (hover to see other rain measurements)
** Current wind speed in m/s (hover to see current wind gust speed)